sensor_id;sensor_type;location;lat;lon;timestamp;temperature;humidity
14307;DHT22;7237;49.500;11.400;2023-04-01T00:01:23;7.90;99.90
14307;DHT22;7237;49.500;11.400;2023-04-01T00:03:49;8.00;99.90
14307;DHT22;7237;49.500;11.400;2023-04-01T00:06:17;7.90;99.90
14307;DHT22;7237;49.500;11.400;2023-04-01T00:08:44;8.00;99.90
14307;DHT22;7237;49.500;11.400;2023-04-01T00:11:12;8.00;99.90
14307;DHT22;7237;49.500;11.400;2023-04-01T00:13:39;8.00;99.90
14307;DHT22;7237;49.500;11.400;2023-04-01T00:16:06;8.20;99.90
14307;DHT22;7237;49.500;11.400;2023-04-01T00:18:34;8.10;99.90
14307;DHT22;7237;49.500;11.400;2023-04-01T00:21:01;8.20;99.90
14307;DHT22;7237;49.500;11.400;2023-04-01T00:23:27;8.30;99.90
14307;DHT22;7237;49.500;11.400;2023-04-01T00:25:54;8.50;99.90
14307;DHT22;7237;49.500;11.400;2023-04-01T00:28:21;8.60;99.90
14307;DHT22;7237;49.500;11.400;2023-04-01T00:30:48;8.50;99.90
14307;DHT22;7237;49.500;11.400;2023-04-01T00:33:15;8.40;99.90
14307;DHT22;7237;49.500;11.400;2023-04-01T00:35:44;8.40;99.90
14307;DHT22;7237;49.500;11.400;2023-04-01T00:38:11;8.40;99.90
14307;DHT22;7237;49.500;11.400;2023-04-01T00:40:40;8.50;99.90
14307;DHT22;7237;49.500;11.400;2023-04-01T00:43:11;8.50;99.90
14307;DHT22;7237;49.500;11.400;2023-04-01T00:45:40;8.50;99.90
14307;DHT22;7237;49.500;11.400;2023-04-01T00:48:11;8.50;99.90
14307;DHT22;7237;49.500;11.400;2023-04-01T00:50:40;9.30;99.90
14307;DHT22;7237;49.500;11.400;2023-04-01T00:53:11;8.60;99.90
14307;DHT22;7237;49.500;11.400;2023-04-01T00:55:41;8.60;99.90
14307;DHT22;7237;49.500;11.400;2023-04-01T00:58:14;8.60;99.90
14307;DHT22;7237;49.500;11.400;2023-04-01T01:00:41;8.60;99.90
14307;DHT22;7237;49.500;11.400;2023-04-01T01:03:09;8.70;99.90
14307;DHT22;7237;49.500;11.400;2023-04-01T01:05:50;8.80;99.90
14307;DHT22;7237;49.500;11.400;2023-04-01T01:08:26;8.60;99.90
14307;DHT22;7237;49.500;11.400;2023-04-01T01:10:58;9.20;99.90
14307;DHT22;7237;49.500;11.400;2023-04-01T01:13:28;8.80;99.90
14307;DHT22;7237;49.500;11.400;2023-04-01T01:15:59;8.00;99.90
14307;DHT22;7237;49.500;11.400;2023-04-01T01:18:33;9.00;99.90
14307;DHT22;7237;49.500;11.400;2023-04-01T01:21:38;8.80;99.90
14307;DHT22;7237;49.500;11.400;2023-04-01T01:24:25;8.50;99.90
14307;DHT22;7237;49.500;11.400;2023-04-01T01:27:01;8.80;99.90
14307;DHT22;7237;49.500;11.400;2023-04-01T01:29:42;9.10;99.90
14307;DHT22;7237;49.500;11.400;2023-04-01T01:32:19;8.80;99.90
14307;DHT22;7237;49.500;11.400;2023-04-01T01:34:53;8.80;99.90
14307;DHT22;7237;49.500;11.400;2023-04-01T01:37:26;9.10;99.90
14307;DHT22;7237;49.500;11.400;2023-04-01T01:39:57;9.00;99.90
14307;DHT22;7237;49.500;11.400;2023-04-01T01:42:26;8.90;99.90
14307;DHT22;7237;49.500;11.400;2023-04-01T01:44:55;9.00;99.90
14307;DHT22;7237;49.500;11.400;2023-04-01T01:47:24;8.80;99.90
14307;DHT22;7237;49.500;11.400;2023-04-01T01:49:51;9.00;99.90
14307;DHT22;7237;49.500;11.400;2023-04-01T01:52:18;8.90;99.90
14307;DHT22;7237;49.500;11.400;2023-04-01T01:54:51;8.90;99.90
14307;DHT22;7237;49.500;11.400;2023-04-01T01:57:20;8.90;99.90
14307;DHT22;7237;49.500;11.400;2023-04-01T01:59:50;9.20;99.90
14307;DHT22;7237;49.500;11.400;2023-04-01T02:02:19;9.00;99.90
14307;DHT22;7237;49.500;11.400;2023-04-01T02:04:48;9.00;99.90
14307;DHT22;7237;49.500;11.400;2023-04-01T02:07:18;8.90;99.90
14307;DHT22;7237;49.500;11.400;2023-04-01T02:09:46;8.90;99.90
14307;DHT22;7237;49.500;11.400;2023-04-01T02:12:16;8.90;99.90
14307;DHT22;7237;49.500;11.400;2023-04-01T02:14:47;9.00;99.90
14307;DHT22;7237;49.500;11.400;2023-04-01T02:17:17;8.90;99.90
14307;DHT22;7237;49.500;11.400;2023-04-01T02:19:48;8.90;99.90
14307;DHT22;7237;49.500;11.400;2023-04-01T02:22:20;8.90;99.90
14307;DHT22;7237;49.500;11.400;2023-04-01T02:24:48;8.50;99.90
14307;DHT22;7237;49.500;11.400;2023-04-01T02:27:17;8.80;99.90
14307;DHT22;7237;49.500;11.400;2023-04-01T02:29:45;8.70;99.90
14307;DHT22;7237;49.500;11.400;2023-04-01T02:32:13;8.80;99.90
14307;DHT22;7237;49.500;11.400;2023-04-01T02:34:41;8.80;99.90
14307;DHT22;7237;49.500;11.400;2023-04-01T02:37:08;8.80;99.90
14307;DHT22;7237;49.500;11.400;2023-04-01T02:39:35;8.80;99.90
14307;DHT22;7237;49.500;11.400;2023-04-01T02:42:02;8.80;99.90
14307;DHT22;7237;49.500;11.400;2023-04-01T02:44:30;8.80;99.90
14307;DHT22;7237;49.500;11.400;2023-04-01T02:46:57;8.80;99.90
14307;DHT22;7237;49.500;11.400;2023-04-01T02:49:24;8.80;99.90
14307;DHT22;7237;49.500;11.400;2023-04-01T02:51:50;8.90;99.90
14307;DHT22;7237;49.500;11.400;2023-04-01T02:54:17;8.90;99.90
14307;DHT22;7237;49.500;11.400;2023-04-01T02:56:45;8.90;99.90
14307;DHT22;7237;49.500;11.400;2023-04-01T02:59:12;9.00;99.90
14307;DHT22;7237;49.500;11.400;2023-04-01T03:01:40;8.90;99.90
14307;DHT22;7237;49.500;11.400;2023-04-01T03:04:06;8.80;99.90
14307;DHT22;7237;49.500;11.400;2023-04-01T03:06:33;9.00;99.90
14307;DHT22;7237;49.500;11.400;2023-04-01T03:09:00;8.90;99.90
14307;DHT22;7237;49.500;11.400;2023-04-01T03:11:27;9.60;99.90
14307;DHT22;7237;49.500;11.400;2023-04-01T03:13:54;8.90;99.90
14307;DHT22;7237;49.500;11.400;2023-04-01T03:16:21;8.80;99.90
14307;DHT22;7237;49.500;11.400;2023-04-01T03:18:49;8.90;99.90
14307;DHT22;7237;49.500;11.400;2023-04-01T03:21:19;8.80;99.90
14307;DHT22;7237;49.500;11.400;2023-04-01T03:23:46;8.80;99.90
14307;DHT22;7237;49.500;11.400;2023-04-01T03:26:13;8.80;99.90
14307;DHT22;7237;49.500;11.400;2023-04-01T03:28:39;8.80;99.90
14307;DHT22;7237;49.500;11.400;2023-04-01T03:31:06;8.90;99.90
14307;DHT22;7237;49.500;11.400;2023-04-01T03:33:33;8.80;99.90
14307;DHT22;7237;49.500;11.400;2023-04-01T03:36:01;8.90;99.90
14307;DHT22;7237;49.500;11.400;2023-04-01T03:38:28;8.90;99.90
14307;DHT22;7237;49.500;11.400;2023-04-01T03:40:55;8.90;99.90
14307;DHT22;7237;49.500;11.400;2023-04-01T03:43:22;8.90;99.90
14307;DHT22;7237;49.500;11.400;2023-04-01T03:45:50;9.00;99.90
14307;DHT22;7237;49.500;11.400;2023-04-01T03:48:18;8.80;99.90
14307;DHT22;7237;49.500;11.400;2023-04-01T03:50:45;8.80;99.90
14307;DHT22;7237;49.500;11.400;2023-04-01T03:53:13;8.80;99.90
14307;DHT22;7237;49.500;11.400;2023-04-01T03:55:40;8.90;99.90
14307;DHT22;7237;49.500;11.400;2023-04-01T03:58:08;8.90;99.90
14307;DHT22;7237;49.500;11.400;2023-04-01T04:00:35;8.80;99.90
14307;DHT22;7237;49.500;11.400;2023-04-01T04:03:02;8.80;99.90
14307;DHT22;7237;49.500;11.400;2023-04-01T04:05:29;8.70;99.90
14307;DHT22;7237;49.500;11.400;2023-04-01T04:07:56;8.80;99.90
14307;DHT22;7237;49.500;11.400;2023-04-01T04:10:24;8.80;99.90
14307;DHT22;7237;49.500;11.400;2023-04-01T04:12:51;8.80;99.90
14307;DHT22;7237;49.500;11.400;2023-04-01T04:15:18;8.80;99.90
14307;DHT22;7237;49.500;11.400;2023-04-01T04:17:45;8.80;99.90
14307;DHT22;7237;49.500;11.400;2023-04-01T04:20:12;8.70;99.90
14307;DHT22;7237;49.500;11.400;2023-04-01T04:22:39;8.80;99.90
14307;DHT22;7237;49.500;11.400;2023-04-01T04:25:06;8.80;99.90
14307;DHT22;7237;49.500;11.400;2023-04-01T04:27:35;8.60;99.90
14307;DHT22;7237;49.500;11.400;2023-04-01T04:30:02;8.70;99.90
14307;DHT22;7237;49.500;11.400;2023-04-01T04:32:30;8.60;99.90
14307;DHT22;7237;49.500;11.400;2023-04-01T04:34:57;8.70;99.90
14307;DHT22;7237;49.500;11.400;2023-04-01T04:37:23;8.70;99.90
14307;DHT22;7237;49.500;11.400;2023-04-01T04:39:51;8.70;99.90
14307;DHT22;7237;49.500;11.400;2023-04-01T04:42:18;8.90;99.90
14307;DHT22;7237;49.500;11.400;2023-04-01T04:44:46;8.70;99.90
14307;DHT22;7237;49.500;11.400;2023-04-01T04:47:12;8.80;99.90
14307;DHT22;7237;49.500;11.400;2023-04-01T04:49:39;8.70;99.90
14307;DHT22;7237;49.500;11.400;2023-04-01T04:52:06;8.80;99.90
14307;DHT22;7237;49.500;11.400;2023-04-01T04:54:33;8.80;99.90
14307;DHT22;7237;49.500;11.400;2023-04-01T04:56:59;8.50;99.90
14307;DHT22;7237;49.500;11.400;2023-04-01T04:59:26;8.70;99.90
14307;DHT22;7237;49.500;11.400;2023-04-01T05:01:54;8.70;99.90
14307;DHT22;7237;49.500;11.400;2023-04-01T05:04:21;8.80;99.90
14307;DHT22;7237;49.500;11.400;2023-04-01T05:06:47;8.80;99.90
14307;DHT22;7237;49.500;11.400;2023-04-01T05:09:15;8.80;99.90
14307;DHT22;7237;49.500;11.400;2023-04-01T05:11:41;8.90;99.90
14307;DHT22;7237;49.500;11.400;2023-04-01T05:14:12;8.90;99.90
14307;DHT22;7237;49.500;11.400;2023-04-01T05:16:39;8.90;99.90
14307;DHT22;7237;49.500;11.400;2023-04-01T05:19:07;8.70;99.90
14307;DHT22;7237;49.500;11.400;2023-04-01T05:21:34;8.70;99.90
14307;DHT22;7237;49.500;11.400;2023-04-01T05:24:01;8.70;99.90
14307;DHT22;7237;49.500;11.400;2023-04-01T05:26:27;8.80;99.90
14307;DHT22;7237;49.500;11.400;2023-04-01T05:28:54;8.90;99.90
14307;DHT22;7237;49.500;11.400;2023-04-01T05:31:21;8.80;99.90
14307;DHT22;7237;49.500;11.400;2023-04-01T05:33:49;8.90;99.90
14307;DHT22;7237;49.500;11.400;2023-04-01T05:36:17;8.80;99.90
14307;DHT22;7237;49.500;11.400;2023-04-01T05:38:44;8.70;99.90
14307;DHT22;7237;49.500;11.400;2023-04-01T05:41:12;8.70;99.90
14307;DHT22;7237;49.500;11.400;2023-04-01T05:43:40;8.80;99.90
14307;DHT22;7237;49.500;11.400;2023-04-01T05:46:07;8.80;99.90
14307;DHT22;7237;49.500;11.400;2023-04-01T05:48:34;8.80;99.90
14307;DHT22;7237;49.500;11.400;2023-04-01T05:51:01;8.60;99.90
14307;DHT22;7237;49.500;11.400;2023-04-01T05:53:29;8.90;99.90
14307;DHT22;7237;49.500;11.400;2023-04-01T05:55:56;9.10;99.90
14307;DHT22;7237;49.500;11.400;2023-04-01T05:58:22;9.10;99.90
14307;DHT22;7237;49.500;11.400;2023-04-01T06:00:49;9.10;99.90
14307;DHT22;7237;49.500;11.400;2023-04-01T06:03:16;9.10;99.90
14307;DHT22;7237;49.500;11.400;2023-04-01T06:05:44;9.10;99.90
14307;DHT22;7237;49.500;11.400;2023-04-01T06:08:12;9.20;99.90
14307;DHT22;7237;49.500;11.400;2023-04-01T06:10:53;9.20;99.90
14307;DHT22;7237;49.500;11.400;2023-04-01T06:13:30;9.30;99.90
14307;DHT22;7237;49.500;11.400;2023-04-01T06:16:07;9.20;99.90
14307;DHT22;7237;49.500;11.400;2023-04-01T06:18:53;9.40;99.90
14307;DHT22;7237;49.500;11.400;2023-04-01T06:24:37;9.10;99.90
14307;DHT22;7237;49.500;11.400;2023-04-01T06:27:16;9.50;99.90
14307;DHT22;7237;49.500;11.400;2023-04-01T06:29:56;9.20;99.90
14307;DHT22;7237;49.500;11.400;2023-04-01T06:32:51;9.30;99.90
14307;DHT22;7237;49.500;11.400;2023-04-01T06:35:55;9.50;99.90
14307;DHT22;7237;49.500;11.400;2023-04-01T06:44:22;9.60;99.90
14307;DHT22;7237;49.500;11.400;2023-04-01T06:46:56;9.60;99.90
14307;DHT22;7237;49.500;11.400;2023-04-01T06:49:41;10.10;99.90
14307;DHT22;7237;49.500;11.400;2023-04-01T06:52:19;9.80;99.90
14307;DHT22;7237;49.500;11.400;2023-04-01T06:54:52;9.70;99.90
14307;DHT22;7237;49.500;11.400;2023-04-01T06:57:23;9.70;99.90
14307;DHT22;7237;49.500;11.400;2023-04-01T06:59:57;9.70;99.90
14307;DHT22;7237;49.500;11.400;2023-04-01T07:02:31;9.50;99.90
14307;DHT22;7237;49.500;11.400;2023-04-01T07:04:59;9.80;99.90
14307;DHT22;7237;49.500;11.400;2023-04-01T07:07:33;9.90;99.90
14307;DHT22;7237;49.500;11.400;2023-04-01T07:10:05;10.00;99.90
14307;DHT22;7237;49.500;11.400;2023-04-01T07:12:40;10.10;99.90
14307;DHT22;7237;49.500;11.400;2023-04-01T07:15:17;10.50;99.90
14307;DHT22;7237;49.500;11.400;2023-04-01T07:17:47;10.60;99.90
14307;DHT22;7237;49.500;11.400;2023-04-01T07:20:20;10.70;99.90
14307;DHT22;7237;49.500;11.400;2023-04-01T07:22:50;10.50;99.90
14307;DHT22;7237;49.500;11.400;2023-04-01T07:25:21;10.80;99.90
14307;DHT22;7237;49.500;11.400;2023-04-01T07:27:52;10.90;99.90
14307;DHT22;7237;49.500;11.400;2023-04-01T07:30:22;10.80;99.90
14307;DHT22;7237;49.500;11.400;2023-04-01T07:32:55;10.70;99.90
14307;DHT22;7237;49.500;11.400;2023-04-01T07:35:29;10.80;99.90
14307;DHT22;7237;49.500;11.400;2023-04-01T07:38:12;10.80;99.90
14307;DHT22;7237;49.500;11.400;2023-04-01T07:40:47;10.70;99.90
14307;DHT22;7237;49.500;11.400;2023-04-01T07:43:22;11.10;99.90
14307;DHT22;7237;49.500;11.400;2023-04-01T07:45:59;11.20;99.90
14307;DHT22;7237;49.500;11.400;2023-04-01T07:48:35;11.50;99.90
14307;DHT22;7237;49.500;11.400;2023-04-01T07:51:12;11.70;99.90
14307;DHT22;7237;49.500;11.400;2023-04-01T07:53:45;12.00;99.90
14307;DHT22;7237;49.500;11.400;2023-04-01T07:56:17;12.00;99.90
14307;DHT22;7237;49.500;11.400;2023-04-01T07:58:58;12.10;99.90
14307;DHT22;7237;49.500;11.400;2023-04-01T08:01:33;12.30;99.90
14307;DHT22;7237;49.500;11.400;2023-04-01T08:04:15;12.20;99.90
14307;DHT22;7237;49.500;11.400;2023-04-01T08:06:49;12.20;99.90
14307;DHT22;7237;49.500;11.400;2023-04-01T08:09:26;12.00;99.90
14307;DHT22;7237;49.500;11.400;2023-04-01T08:12:04;11.90;99.90
14307;DHT22;7237;49.500;11.400;2023-04-01T08:14:43;11.90;99.90
14307;DHT22;7237;49.500;11.400;2023-04-01T08:17:19;11.90;99.90
14307;DHT22;7237;49.500;11.400;2023-04-01T08:19:58;11.70;99.90
14307;DHT22;7237;49.500;11.400;2023-04-01T08:22:29;12.00;99.90
14307;DHT22;7237;49.500;11.400;2023-04-01T08:24:58;11.90;99.90
14307;DHT22;7237;49.500;11.400;2023-04-01T08:27:34;12.20;99.90
14307;DHT22;7237;49.500;11.400;2023-04-01T08:30:04;12.10;99.90
14307;DHT22;7237;49.500;11.400;2023-04-01T08:32:36;12.10;99.90
14307;DHT22;7237;49.500;11.400;2023-04-01T08:35:09;12.10;99.90
14307;DHT22;7237;49.500;11.400;2023-04-01T08:37:41;11.90;99.90
14307;DHT22;7237;49.500;11.400;2023-04-01T08:40:33;12.10;99.90
14307;DHT22;7237;49.500;11.400;2023-04-01T08:43:09;11.80;99.90
14307;DHT22;7237;49.500;11.400;2023-04-01T08:45:56;11.90;99.90
14307;DHT22;7237;49.500;11.400;2023-04-01T08:48:48;11.60;99.90
14307;DHT22;7237;49.500;11.400;2023-04-01T08:56:42;11.50;99.90
14307;DHT22;7237;49.500;11.400;2023-04-01T09:02:39;11.30;99.90
14307;DHT22;7237;49.500;11.400;2023-04-01T09:05:31;11.40;99.90
14307;DHT22;7237;49.500;11.400;2023-04-01T09:08:13;11.50;99.90
14307;DHT22;7237;49.500;11.400;2023-04-01T09:10:56;11.40;99.90
14307;DHT22;7237;49.500;11.400;2023-04-01T09:13:50;11.30;99.90
14307;DHT22;7237;49.500;11.400;2023-04-01T09:16:26;11.50;99.90
14307;DHT22;7237;49.500;11.400;2023-04-01T09:19:17;11.40;99.90
